sensor_id;sensor_type;location;lat;lon;timestamp;P1;durP1;ratioP1;P2;durP2;ratioP2
57389;SDS011;43217;52.694;6.214;2023-04-15T00:00:36;10.43;;;7.40;;
57389;SDS011;43217;52.694;6.214;2023-04-15T00:03:02;10.18;;;7.90;;
57389;SDS011;43217;52.694;6.214;2023-04-15T00:05:29;10.80;;;7.97;;
57389;SDS011;43217;52.694;6.214;2023-04-15T00:07:55;8.88;;;7.90;;
57389;SDS011;43217;52.694;6.214;2023-04-15T00:10:23;12.38;;;8.52;;
57389;SDS011;43217;52.694;6.214;2023-04-15T00:12:49;8.65;;;7.75;;
57389;SDS011;43217;52.694;6.214;2023-04-15T00:15:15;10.88;;;7.35;;
57389;SDS011;43217;52.694;6.214;2023-04-15T00:17:41;9.23;;;7.45;;
57389;SDS011;43217;52.694;6.214;2023-04-15T00:20:07;9.05;;;7.95;;
57389;SDS011;43217;52.694;6.214;2023-04-15T00:22:33;10.30;;;7.25;;
57389;SDS011;43217;52.694;6.214;2023-04-15T00:24:59;9.18;;;7.45;;
57389;SDS011;43217;52.694;6.214;2023-04-15T00:27:24;9.88;;;7.55;;
57389;SDS011;43217;52.694;6.214;2023-04-15T00:29:50;9.23;;;7.32;;
57389;SDS011;43217;52.694;6.214;2023-04-15T00:32:15;8.45;;;7.55;;
57389;SDS011;43217;52.694;6.214;2023-04-15T00:34:41;8.68;;;7.65;;
57389;SDS011;43217;52.694;6.214;2023-04-15T00:37:08;9.43;;;8.05;;
57389;SDS011;43217;52.694;6.214;2023-04-15T00:39:34;9.40;;;7.88;;
57389;SDS011;43217;52.694;6.214;2023-04-15T00:42:00;9.85;;;8.00;;
57389;SDS011;43217;52.694;6.214;2023-04-15T00:44:28;8.00;;;7.15;;
57389;SDS011;43217;52.694;6.214;2023-04-15T00:46:56;10.75;;;7.28;;
57389;SDS011;43217;52.694;6.214;2023-04-15T00:49:24;8.85;;;7.65;;
57389;SDS011;43217;52.694;6.214;2023-04-15T00:51:53;10.80;;;7.70;;
57389;SDS011;43217;52.694;6.214;2023-04-15T00:54:19;11.75;;;8.07;;
57389;SDS011;43217;52.694;6.214;2023-04-15T00:56:45;9.68;;;7.80;;
57389;SDS011;43217;52.694;6.214;2023-04-15T00:59:11;10.20;;;8.07;;
57389;SDS011;43217;52.694;6.214;2023-04-15T01:01:37;10.20;;;7.60;;
57389;SDS011;43217;52.694;6.214;2023-04-15T01:04:02;10.43;;;8.13;;
57389;SDS011;43217;52.694;6.214;2023-04-15T01:06:29;12.63;;;8.25;;
57389;SDS011;43217;52.694;6.214;2023-04-15T01:11:22;10.32;;;7.70;;
57389;SDS011;43217;52.694;6.214;2023-04-15T01:13:49;8.95;;;8.07;;
57389;SDS011;43217;52.694;6.214;2023-04-15T01:16:16;9.73;;;8.27;;
57389;SDS011;43217;52.694;6.214;2023-04-15T01:18:43;9.88;;;8.07;;
57389;SDS011;43217;52.694;6.214;2023-04-15T01:21:09;9.02;;;8.15;;
57389;SDS011;43217;52.694;6.214;2023-04-15T01:23:36;10.13;;;8.15;;
57389;SDS011;43217;52.694;6.214;2023-04-15T01:26:03;10.38;;;8.15;;
57389;SDS011;43217;52.694;6.214;2023-04-15T01:28:29;11.68;;;7.95;;
57389;SDS011;43217;52.694;6.214;2023-04-15T01:31:07;9.05;;;7.75;;
57389;SDS011;43217;52.694;6.214;2023-04-15T01:33:38;11.70;;;8.30;;
57389;SDS011;43217;52.694;6.214;2023-04-15T01:36:08;9.57;;;8.27;;
57389;SDS011;43217;52.694;6.214;2023-04-15T01:38:35;10.88;;;7.97;;
57389;SDS011;43217;52.694;6.214;2023-04-15T01:41:01;9.80;;;8.07;;
57389;SDS011;43217;52.694;6.214;2023-04-15T01:43:32;10.15;;;7.95;;
57389;SDS011;43217;52.694;6.214;2023-04-15T01:45:58;11.20;;;7.63;;
57389;SDS011;43217;52.694;6.214;2023-04-15T01:48:24;9.65;;;8.48;;
57389;SDS011;43217;52.694;6.214;2023-04-15T01:50:52;12.10;;;8.27;;
57389;SDS011;43217;52.694;6.214;2023-04-15T01:53:18;10.90;;;8.50;;
57389;SDS011;43217;52.694;6.214;2023-04-15T01:55:44;11.15;;;8.63;;
57389;SDS011;43217;52.694;6.214;2023-04-15T01:58:10;11.30;;;8.77;;
57389;SDS011;43217;52.694;6.214;2023-04-15T02:00:36;11.23;;;8.73;;
57389;SDS011;43217;52.694;6.214;2023-04-15T02:03:02;9.52;;;8.52;;
57389;SDS011;43217;52.694;6.214;2023-04-15T02:05:28;10.88;;;8.90;;
57389;SDS011;43217;52.694;6.214;2023-04-15T02:07:53;11.55;;;9.00;;
57389;SDS011;43217;52.694;6.214;2023-04-15T02:10:19;11.32;;;9.88;;
57389;SDS011;43217;52.694;6.214;2023-04-15T02:12:45;13.55;;;10.55;;
57389;SDS011;43217;52.694;6.214;2023-04-15T02:15:10;14.10;;;10.95;;
57389;SDS011;43217;52.694;6.214;2023-04-15T02:17:36;12.98;;;9.93;;
57389;SDS011;43217;52.694;6.214;2023-04-15T02:20:02;9.82;;;8.82;;
57389;SDS011;43217;52.694;6.214;2023-04-15T02:22:32;11.10;;;9.40;;
57389;SDS011;43217;52.694;6.214;2023-04-15T02:24:59;12.98;;;9.18;;
57389;SDS011;43217;52.694;6.214;2023-04-15T02:27:25;11.98;;;8.95;;
57389;SDS011;43217;52.694;6.214;2023-04-15T02:29:53;9.55;;;8.43;;
57389;SDS011;43217;52.694;6.214;2023-04-15T02:32:19;10.53;;;9.13;;
57389;SDS011;43217;52.694;6.214;2023-04-15T02:37:13;11.10;;;8.77;;
57389;SDS011;43217;52.694;6.214;2023-04-15T02:39:38;11.65;;;9.38;;
57389;SDS011;43217;52.694;6.214;2023-04-15T02:42:04;10.23;;;9.00;;
57389;SDS011;43217;52.694;6.214;2023-04-15T02:44:30;10.68;;;9.38;;
57389;SDS011;43217;52.694;6.214;2023-04-15T02:46:57;12.25;;;9.70;;
57389;SDS011;43217;52.694;6.214;2023-04-15T02:49:23;12.15;;;9.57;;
57389;SDS011;43217;52.694;6.214;2023-04-15T02:51:49;10.82;;;9.73;;
57389;SDS011;43217;52.694;6.214;2023-04-15T02:54:18;11.95;;;9.38;;
57389;SDS011;43217;52.694;6.214;2023-04-15T02:56:45;10.75;;;9.63;;
57389;SDS011;43217;52.694;6.214;2023-04-15T02:59:11;10.23;;;9.25;;
57389;SDS011;43217;52.694;6.214;2023-04-15T03:01:37;11.15;;;9.32;;
57389;SDS011;43217;52.694;6.214;2023-04-15T03:04:02;11.20;;;9.90;;
57389;SDS011;43217;52.694;6.214;2023-04-15T03:06:28;10.40;;;9.38;;
57389;SDS011;43217;52.694;6.214;2023-04-15T03:08:55;11.25;;;9.90;;
57389;SDS011;43217;52.694;6.214;2023-04-15T03:11:21;11.73;;;9.35;;
57389;SDS011;43217;52.694;6.214;2023-04-15T03:13:47;12.63;;;10.05;;
57389;SDS011;43217;52.694;6.214;2023-04-15T03:16:13;11.77;;;10.23;;
57389;SDS011;43217;52.694;6.214;2023-04-15T03:18:38;12.82;;;10.90;;
57389;SDS011;43217;52.694;6.214;2023-04-15T03:21:04;13.40;;;10.98;;
57389;SDS011;43217;52.694;6.214;2023-04-15T03:23:30;12.27;;;10.73;;
57389;SDS011;43217;52.694;6.214;2023-04-15T03:25:56;12.10;;;10.20;;
57389;SDS011;43217;52.694;6.214;2023-04-15T03:28:23;14.15;;;10.93;;
57389;SDS011;43217;52.694;6.214;2023-04-15T03:30:48;12.55;;;11.25;;
57389;SDS011;43217;52.694;6.214;2023-04-15T03:33:14;12.95;;;10.43;;
57389;SDS011;43217;52.694;6.214;2023-04-15T03:35:40;13.15;;;11.63;;
57389;SDS011;43217;52.694;6.214;2023-04-15T03:38:06;12.02;;;10.73;;
57389;SDS011;43217;52.694;6.214;2023-04-15T03:40:31;12.15;;;10.95;;
57389;SDS011;43217;52.694;6.214;2023-04-15T03:42:57;14.45;;;10.88;;
57389;SDS011;43217;52.694;6.214;2023-04-15T03:45:22;11.80;;;10.45;;
57389;SDS011;43217;52.694;6.214;2023-04-15T03:47:48;15.45;;;11.05;;
57389;SDS011;43217;52.694;6.214;2023-04-15T03:50:14;13.15;;;11.07;;
57389;SDS011;43217;52.694;6.214;2023-04-15T03:52:40;13.57;;;11.15;;
57389;SDS011;43217;52.694;6.214;2023-04-15T03:55:07;12.35;;;11.00;;
57389;SDS011;43217;52.694;6.214;2023-04-15T03:57:33;13.00;;;11.43;;
57389;SDS011;43217;52.694;6.214;2023-04-15T04:00:03;14.43;;;11.57;;
57389;SDS011;43217;52.694;6.214;2023-04-15T04:02:29;12.68;;;10.90;;
57389;SDS011;43217;52.694;6.214;2023-04-15T04:04:55;17.73;;;12.88;;
57389;SDS011;43217;52.694;6.214;2023-04-15T04:07:21;13.77;;;12.25;;
57389;SDS011;43217;52.694;6.214;2023-04-15T04:09:47;14.32;;;12.15;;
57389;SDS011;43217;52.694;6.214;2023-04-15T04:12:13;13.15;;;11.75;;
57389;SDS011;43217;52.694;6.214;2023-04-15T04:14:39;14.88;;;12.77;;
57389;SDS011;43217;52.694;6.214;2023-04-15T04:17:04;14.02;;;12.60;;
57389;SDS011;43217;52.694;6.214;2023-04-15T04:19:30;15.00;;;13.23;;
57389;SDS011;43217;52.694;6.214;2023-04-15T04:21:56;16.58;;;13.63;;
57389;SDS011;43217;52.694;6.214;2023-04-15T04:24:21;15.68;;;13.73;;
57389;SDS011;43217;52.694;6.214;2023-04-15T04:26:47;15.82;;;14.02;;
57389;SDS011;43217;52.694;6.214;2023-04-15T04:29:13;14.23;;;12.73;;
57389;SDS011;43217;52.694;6.214;2023-04-15T04:31:38;16.55;;;12.82;;
57389;SDS011;43217;52.694;6.214;2023-04-15T04:34:04;13.38;;;11.88;;
57389;SDS011;43217;52.694;6.214;2023-04-15T04:36:30;14.90;;;13.02;;
57389;SDS011;43217;52.694;6.214;2023-04-15T04:38:56;14.93;;;12.13;;
57389;SDS011;43217;52.694;6.214;2023-04-15T04:41:21;15.57;;;13.43;;
57389;SDS011;43217;52.694;6.214;2023-04-15T04:43:47;14.82;;;12.98;;
57389;SDS011;43217;52.694;6.214;2023-04-15T04:46:13;16.02;;;13.15;;
57389;SDS011;43217;52.694;6.214;2023-04-15T04:48:39;15.45;;;13.80;;
57389;SDS011;43217;52.694;6.214;2023-04-15T04:51:05;15.88;;;13.82;;
57389;SDS011;43217;52.694;6.214;2023-04-15T04:53:37;16.33;;;14.13;;
57389;SDS011;43217;52.694;6.214;2023-04-15T04:56:03;16.58;;;14.52;;
57389;SDS011;43217;52.694;6.214;2023-04-15T04:58:32;16.73;;;14.85;;
57389;SDS011;43217;52.694;6.214;2023-04-15T05:00:58;19.30;;;15.02;;
57389;SDS011;43217;52.694;6.214;2023-04-15T05:03:29;16.05;;;14.35;;
57389;SDS011;43217;52.694;6.214;2023-04-15T05:05:55;17.13;;;14.55;;
57389;SDS011;43217;52.694;6.214;2023-04-15T05:08:23;17.98;;;14.57;;
57389;SDS011;43217;52.694;6.214;2023-04-15T05:10:48;16.83;;;14.93;;
57389;SDS011;43217;52.694;6.214;2023-04-15T05:13:14;17.73;;;14.18;;
57389;SDS011;43217;52.694;6.214;2023-04-15T05:15:40;15.75;;;14.05;;
57389;SDS011;43217;52.694;6.214;2023-04-15T05:18:11;16.77;;;14.13;;
57389;SDS011;43217;52.694;6.214;2023-04-15T05:20:37;17.60;;;14.30;;
57389;SDS011;43217;52.694;6.214;2023-04-15T05:23:06;16.95;;;14.05;;
57389;SDS011;43217;52.694;6.214;2023-04-15T05:25:32;15.30;;;13.75;;
57389;SDS011;43217;52.694;6.214;2023-04-15T05:27:57;17.02;;;14.23;;
57389;SDS011;43217;52.694;6.214;2023-04-15T05:30:23;17.15;;;13.77;;
57389;SDS011;43217;52.694;6.214;2023-04-15T05:32:49;15.43;;;13.82;;
57389;SDS011;43217;52.694;6.214;2023-04-15T05:35:14;14.45;;;13.00;;
57389;SDS011;43217;52.694;6.214;2023-04-15T05:37:40;16.55;;;14.82;;
57389;SDS011;43217;52.694;6.214;2023-04-15T05:40:06;13.80;;;12.40;;
57389;SDS011;43217;52.694;6.214;2023-04-15T05:42:36;14.88;;;12.80;;
57389;SDS011;43217;52.694;6.214;2023-04-15T05:45:02;15.95;;;13.40;;
57389;SDS011;43217;52.694;6.214;2023-04-15T05:47:33;15.25;;;12.82;;
57389;SDS011;43217;52.694;6.214;2023-04-15T05:50:02;15.57;;;13.52;;
57389;SDS011;43217;52.694;6.214;2023-04-15T05:52:28;13.82;;;12.30;;
57389;SDS011;43217;52.694;6.214;2023-04-15T05:54:54;13.75;;;12.25;;
57389;SDS011;43217;52.694;6.214;2023-04-15T05:57:20;13.40;;;12.00;;
57389;SDS011;43217;52.694;6.214;2023-04-15T05:59:49;15.40;;;12.50;;
57389;SDS011;43217;52.694;6.214;2023-04-15T06:02:22;13.57;;;12.00;;
57389;SDS011;43217;52.694;6.214;2023-04-15T06:04:48;14.38;;;12.88;;
57389;SDS011;43217;52.694;6.214;2023-04-15T06:07:14;14.27;;;12.65;;
57389;SDS011;43217;52.694;6.214;2023-04-15T06:09:40;15.30;;;13.57;;
57389;SDS011;43217;52.694;6.214;2023-04-15T06:12:06;15.55;;;13.50;;
57389;SDS011;43217;52.694;6.214;2023-04-15T06:14:36;14.52;;;12.77;;
57389;SDS011;43217;52.694;6.214;2023-04-15T06:17:09;14.95;;;12.73;;
57389;SDS011;43217;52.694;6.214;2023-04-15T06:19:34;15.15;;;13.55;;
57389;SDS011;43217;52.694;6.214;2023-04-15T06:22:01;15.68;;;13.98;;
57389;SDS011;43217;52.694;6.214;2023-04-15T06:24:27;14.15;;;12.63;;
57389;SDS011;43217;52.694;6.214;2023-04-15T06:26:53;14.52;;;13.02;;
57389;SDS011;43217;52.694;6.214;2023-04-15T06:29:27;15.18;;;13.57;;
57389;SDS011;43217;52.694;6.214;2023-04-15T06:31:52;16.02;;;14.15;;
57389;SDS011;43217;52.694;6.214;2023-04-15T06:34:18;15.68;;;13.27;;
57389;SDS011;43217;52.694;6.214;2023-04-15T06:36:44;14.60;;;12.93;;
57389;SDS011;43217;52.694;6.214;2023-04-15T06:39:09;14.23;;;12.80;;
57389;SDS011;43217;52.694;6.214;2023-04-15T06:41:35;16.13;;;13.80;;
57389;SDS011;43217;52.694;6.214;2023-04-15T06:44:01;14.20;;;12.70;;
57389;SDS011;43217;52.694;6.214;2023-04-15T06:46:27;14.00;;;12.60;;
57389;SDS011;43217;52.694;6.214;2023-04-15T06:48:52;13.18;;;11.77;;
57389;SDS011;43217;52.694;6.214;2023-04-15T06:51:18;14.57;;;12.45;;
57389;SDS011;43217;52.694;6.214;2023-04-15T06:53:45;14.13;;;12.63;;
57389;SDS011;43217;52.694;6.214;2023-04-15T06:56:10;14.90;;;12.80;;
57389;SDS011;43217;52.694;6.214;2023-04-15T06:58:36;14.18;;;12.55;;
57389;SDS011;43217;52.694;6.214;2023-04-15T07:01:02;12.85;;;11.52;;
57389;SDS011;43217;52.694;6.214;2023-04-15T07:03:28;13.43;;;12.02;;
57389;SDS011;43217;52.694;6.214;2023-04-15T07:05:54;14.30;;;11.73;;
57389;SDS011;43217;52.694;6.214;2023-04-15T07:08:19;13.07;;;11.77;;
57389;SDS011;43217;52.694;6.214;2023-04-15T07:10:45;13.45;;;11.48;;
57389;SDS011;43217;52.694;6.214;2023-04-15T07:13:11;14.45;;;11.50;;
57389;SDS011;43217;52.694;6.214;2023-04-15T07:15:37;12.23;;;11.02;;
57389;SDS011;43217;52.694;6.214;2023-04-15T07:18:04;11.50;;;10.30;;
57389;SDS011;43217;52.694;6.214;2023-04-15T07:20:29;12.18;;;10.98;;
57389;SDS011;43217;52.694;6.214;2023-04-15T07:22:55;12.57;;;10.68;;
57389;SDS011;43217;52.694;6.214;2023-04-15T07:25:22;12.75;;;10.50;;
57389;SDS011;43217;52.694;6.214;2023-04-15T07:27:48;11.15;;;10.05;;
57389;SDS011;43217;52.694;6.214;2023-04-15T07:30:13;11.32;;;10.20;;
57389;SDS011;43217;52.694;6.214;2023-04-15T07:32:40;12.02;;;10.25;;
57389;SDS011;43217;52.694;6.214;2023-04-15T07:35:06;11.85;;;9.55;;
57389;SDS011;43217;52.694;6.214;2023-04-15T07:37:33;9.93;;;8.80;;
57389;SDS011;43217;52.694;6.214;2023-04-15T07:39:59;10.55;;;9.30;;
57389;SDS011;43217;52.694;6.214;2023-04-15T07:42:25;9.20;;;8.27;;
57389;SDS011;43217;52.694;6.214;2023-04-15T07:44:51;10.00;;;9.00;;
57389;SDS011;43217;52.694;6.214;2023-04-15T07:47:17;9.68;;;8.68;;
57389;SDS011;43217;52.694;6.214;2023-04-15T07:49:42;9.68;;;8.68;;
57389;SDS011;43217;52.694;6.214;2023-04-15T07:52:08;10.05;;;8.90;;
57389;SDS011;43217;52.694;6.214;2023-04-15T07:54:34;8.98;;;8.10;;
57389;SDS011;43217;52.694;6.214;2023-04-15T07:56:59;8.82;;;7.93;;
57389;SDS011;43217;52.694;6.214;2023-04-15T07:59:25;9.60;;;8.60;;
57389;SDS011;43217;52.694;6.214;2023-04-15T08:01:54;10.85;;;8.75;;
57389;SDS011;43217;52.694;6.214;2023-04-15T08:04:19;8.65;;;7.85;;
57389;SDS011;43217;52.694;6.214;2023-04-15T08:06:45;8.27;;;7.47;;
57389;SDS011;43217;52.694;6.214;2023-04-15T08:09:12;8.52;;;7.55;;
57389;SDS011;43217;52.694;6.214;2023-04-15T08:11:37;8.20;;;7.40;;
57389;SDS011;43217;52.694;6.214;2023-04-15T08:14:04;7.72;;;7.03;;
57389;SDS011;43217;52.694;6.214;2023-04-15T08:16:30;8.13;;;6.82;;
57389;SDS011;43217;52.694;6.214;2023-04-15T08:18:56;7.88;;;7.07;;
57389;SDS011;43217;52.694;6.214;2023-04-15T08:21:22;7.68;;;6.88;;
57389;SDS011;43217;52.694;6.214;2023-04-15T08:23:50;7.63;;;6.93;;
57389;SDS011;43217;52.694;6.214;2023-04-15T08:26:17;7.47;;;6.60;;
57389;SDS011;43217;52.694;6.214;2023-04-15T08:28:43;7.93;;;7.13;;
57389;SDS011;43217;52.694;6.214;2023-04-15T08:31:15;7.35;;;6.65;;
57389;SDS011;43217;52.694;6.214;2023-04-15T08:33:42;8.60;;;7.78;;
57389;SDS011;43217;52.694;6.214;2023-04-15T08:36:07;8.05;;;7.25;;
57389;SDS011;43217;52.694;6.214;2023-04-15T08:38:33;7.93;;;7.00;;
57389;SDS011;43217;52.694;6.214;2023-04-15T08:41:02;6.97;;;6.28;;
57389;SDS011;43217;52.694;6.214;2023-04-15T08:43:34;7.18;;;6.47;;
57389;SDS011;43217;52.694;6.214;2023-04-15T08:46:18;6.43;;;5.82;;
57389;SDS011;43217;52.694;6.214;2023-04-15T08:48:44;6.57;;;6.07;;
57389;SDS011;43217;52.694;6.214;2023-04-15T08:51:12;5.32;;;4.82;;
57389;SDS011;43217;52.694;6.214;2023-04-15T08:53:40;5.65;;;5.07;;
57389;SDS011;43217;52.694;6.214;2023-04-15T08:56:07;6.07;;;5.47;;
57389;SDS011;43217;52.694;6.214;2023-04-15T09:01:02;5.45;;;4.95;;
57389;SDS011;43217;52.694;6.214;2023-04-15T09:03:29;5.40;;;4.45;;
57389;SDS011;43217;52.694;6.214;2023-04-15T09:05:55;5.32;;;4.45;;
57389;SDS011;43217;52.694;6.214;2023-04-15T09:08:22;5.80;;;4.10;;
57389;SDS011;43217;52.694;6.214;2023-04-15T09:10:47;4.63;;;4.03;;
57389;SDS011;43217;52.694;6.214;2023-04-15T09:13:13;4.47;;;3.75;;
57389;SDS011;43217;52.694;6.214;2023-04-15T09:15:39;4.53;;;3.65;;
57389;SDS011;43217;52.694;6.214;2023-04-15T09:18:05;4.38;;;3.97;;
57389;SDS011;43217;52.694;6.214;2023-04-15T09:20:37;4.55;;;4.15;;
57389;SDS011;43217;52.694;6.214;2023-04-15T09:23:14;5.22;;;4.10;;
57389;SDS011;43217;52.694;6.214;2023-04-15T09:25:41;5.18;;;4.47;;
57389;SDS011;43217;52.694;6.214;2023-04-15T09:28:07;6.40;;;5.47;;
57389;SDS011;43217;52.694;6.214;2023-04-15T09:30:33;5.75;;;4.97;;
57389;SDS011;43217;52.694;6.214;2023-04-15T09:33:01;5.95;;;5.35;;
57389;SDS011;43217;52.694;6.214;2023-04-15T09:35:28;5.97;;;5.38;;
57389;SDS011;43217;52.694;6.214;2023-04-15T09:38:04;5.78;;;4.80;;
57389;SDS011;43217;52.694;6.214;2023-04-15T09:43:04;5.20;;;3.58;;
57389;SDS011;43217;52.694;6.214;2023-04-15T09:45:31;4.60;;;4.20;;
57389;SDS011;43217;52.694;6.214;2023-04-15T09:50:39;5.43;;;3.90;;
57389;SDS011;43217;52.694;6.214;2023-04-15T09:53:08;4.18;;;3.72;;
57389;SDS011;43217;52.694;6.214;2023-04-15T09:55:42;3.92;;;3.53;;
57389;SDS011;43217;52.694;6.214;2023-04-15T09:58:16;5.82;;;3.60;;
57389;SDS011;43217;52.694;6.214;2023-04-15T10:00:46;5.93;;;3.60;;
57389;SDS011;43217;52.694;6.214;2023-04-15T10:03:14;3.70;;;3.25;;
57389;SDS011;43217;52.694;6.214;2023-04-15T10:05:44;4.57;;;3.03;;
57389;SDS011;43217;52.694;6.214;2023-04-15T10:08:14;2.97;;;2.22;;
57389;SDS011;43217;52.694;6.214;2023-04-15T10:10:42;3.30;;;2.55;;
57389;SDS011;43217;52.694;6.214;2023-04-15T10:13:18;2.88;;;2.67;;
57389;SDS011;43217;52.694;6.214;2023-04-15T10:15:50;3.75;;;2.75;;
57389;SDS011;43217;52.694;6.214;2023-04-15T10:18:24;2.97;;;2.78;;
57389;SDS011;43217;52.694;6.214;2023-04-15T10:20:51;4.13;;;3.28;;
57389;SDS011;43217;52.694;6.214;2023-04-15T10:23:18;3.10;;;2.77;;
57389;SDS011;43217;52.694;6.214;2023-04-15T10:25:45;3.53;;;3.22;;
57389;SDS011;43217;52.694;6.214;2023-04-15T10:28:11;4.50;;;3.40;;
57389;SDS011;43217;52.694;6.214;2023-04-15T10:30:37;5.65;;;3.40;;
57389;SDS011;43217;52.694;6.214;2023-04-15T10:33:03;5.95;;;3.45;;
57389;SDS011;43217;52.694;6.214;2023-04-15T10:35:30;3.90;;;3.07;;
57389;SDS011;43217;52.694;6.214;2023-04-15T10:37:57;3.90;;;2.40;;
57389;SDS011;43217;52.694;6.214;2023-04-15T10:40:23;3.53;;;2.85;;
57389;SDS011;43217;52.694;6.214;2023-04-15T10:42:55;3.83;;;2.33;;
57389;SDS011;43217;52.694;6.214;2023-04-15T10:45:24;3.28;;;2.40;;
57389;SDS011;43217;52.694;6.214;2023-04-15T10:47:55;4.15;;;2.80;;
57389;SDS011;43217;52.694;6.214;2023-04-15T10:50:21;2.47;;;2.28;;
57389;SDS011;43217;52.694;6.214;2023-04-15T10:52:49;2.75;;;2.30;;
57389;SDS011;43217;52.694;6.214;2023-04-15T10:55:20;3.35;;;2.38;;
57389;SDS011;43217;52.694;6.214;2023-04-15T10:57:54;3.83;;;2.22;;
57389;SDS011;43217;52.694;6.214;2023-04-15T11:00:24;4.85;;;2.20;;
57389;SDS011;43217;52.694;6.214;2023-04-15T11:02:58;3.28;;;1.90;;
57389;SDS011;43217;52.694;6.214;2023-04-15T11:08:07;2.72;;;1.70;;
57389;SDS011;43217;52.694;6.214;2023-04-15T11:15:27;2.50;;;1.60;;
57389;SDS011;43217;52.694;6.214;2023-04-15T11:18:11;1.35;;;1.25;;
57389;SDS011;43217;52.694;6.214;2023-04-15T11:20:48;1.45;;;1.33;;
57389;SDS011;43217;52.694;6.214;2023-04-15T11:23:16;1.75;;;1.38;;
57389;SDS011;43217;52.694;6.214;2023-04-15T11:25:42;1.83;;;1.23;;
57389;SDS011;43217;52.694;6.214;2023-04-15T11:28:08;1.52;;;1.40;;
57389;SDS011;43217;52.694;6.214;2023-04-15T11:30:35;1.63;;;1.20;;
57389;SDS011;43217;52.694;6.214;2023-04-15T11:33:02;2.60;;;1.38;;
57389;SDS011;43217;52.694;6.214;2023-04-15T11:35:29;1.88;;;1.40;;
57389;SDS011;43217;52.694;6.214;2023-04-15T11:37:55;1.27;;;1.15;;
57389;SDS011;43217;52.694;6.214;2023-04-15T11:40:21;1.42;;;1.33;;
57389;SDS011;43217;52.694;6.214;2023-04-15T11:45:35;1.50;;;1.40;;
57389;SDS011;43217;52.694;6.214;2023-04-15T11:48:05;1.48;;;1.38;;
57389;SDS011;43217;52.694;6.214;2023-04-15T11:50:36;2.17;;;1.70;;
57389;SDS011;43217;52.694;6.214;2023-04-15T11:53:04;2.42;;;1.70;;
57389;SDS011;43217;52.694;6.214;2023-04-15T11:55:40;2.70;;;1.92;;
57389;SDS011;43217;52.694;6.214;2023-04-15T12:00:50;2.83;;;1.63;;
57389;SDS011;43217;52.694;6.214;2023-04-15T12:03:18;2.28;;;1.45;;
57389;SDS011;43217;52.694;6.214;2023-04-15T12:06:07;3.20;;;2.15;;
57389;SDS011;43217;52.694;6.214;2023-04-15T12:13:54;2.20;;;1.70;;
57389;SDS011;43217;52.694;6.214;2023-04-15T12:16:27;2.40;;;1.70;;
57389;SDS011;43217;52.694;6.214;2023-04-15T12:18:53;2.50;;;1.50;;
57389;SDS011;43217;52.694;6.214;2023-04-15T12:21:21;1.70;;;1.60;;
57389;SDS011;43217;52.694;6.214;2023-04-15T12:23:48;2.15;;;1.98;;
57389;SDS011;43217;52.694;6.214;2023-04-15T12:26:29;2.78;;;1.80;;
57389;SDS011;43217;52.694;6.214;2023-04-15T12:29:15;4.13;;;1.90;;
57389;SDS011;43217;52.694;6.214;2023-04-15T12:31:48;2.43;;;1.87;;
57389;SDS011;43217;52.694;6.214;2023-04-15T12:34:31;2.35;;;1.83;;
57389;SDS011;43217;52.694;6.214;2023-04-15T12:37:01;2.65;;;1.80;;
57389;SDS011;43217;52.694;6.214;2023-04-15T12:39:29;3.85;;;2.22;;
57389;SDS011;43217;52.694;6.214;2023-04-15T12:44:26;2.83;;;2.00;;
57389;SDS011;43217;52.694;6.214;2023-04-15T12:46:52;2.95;;;2.05;;
57389;SDS011;43217;52.694;6.214;2023-04-15T12:49:19;3.25;;;2.50;;
57389;SDS011;43217;52.694;6.214;2023-04-15T12:51:49;3.30;;;2.00;;
57389;SDS011;43217;52.694;6.214;2023-04-15T12:54:17;3.33;;;1.92;;
57389;SDS011;43217;52.694;6.214;2023-04-15T12:56:43;4.68;;;2.13;;
57389;SDS011;43217;52.694;6.214;2023-04-15T12:59:11;4.22;;;2.38;;
57389;SDS011;43217;52.694;6.214;2023-04-15T13:01:37;4.20;;;2.72;;
57389;SDS011;43217;52.694;6.214;2023-04-15T13:04:04;5.07;;;2.35;;
57389;SDS011;43217;52.694;6.214;2023-04-15T13:06:30;6.47;;;2.75;;
57389;SDS011;43217;52.694;6.214;2023-04-15T13:09:00;7.30;;;2.05;;
57389;SDS011;43217;52.694;6.214;2023-04-15T13:11:27;6.72;;;2.15;;
57389;SDS011;43217;52.694;6.214;2023-04-15T13:13:58;5.32;;;2.38;;
57389;SDS011;43217;52.694;6.214;2023-04-15T13:16:27;3.22;;;2.10;;
57389;SDS011;43217;52.694;6.214;2023-04-15T13:18:53;5.47;;;2.30;;
57389;SDS011;43217;52.694;6.214;2023-04-15T13:21:19;3.38;;;2.30;;
57389;SDS011;43217;52.694;6.214;2023-04-15T13:23:45;5.68;;;2.13;;
57389;SDS011;43217;52.694;6.214;2023-04-15T13:26:11;6.75;;;2.08;;
57389;SDS011;43217;52.694;6.214;2023-04-15T13:28:36;6.25;;;2.50;;
57389;SDS011;43217;52.694;6.214;2023-04-15T13:31:04;6.22;;;2.35;;
57389;SDS011;43217;52.694;6.214;2023-04-15T13:33:30;6.18;;;2.30;;
57389;SDS011;43217;52.694;6.214;2023-04-15T13:35:56;5.28;;;2.05;;
57389;SDS011;43217;52.694;6.214;2023-04-15T13:38:21;4.22;;;1.77;;
57389;SDS011;43217;52.694;6.214;2023-04-15T13:40:48;4.17;;;2.27;;
57389;SDS011;43217;52.694;6.214;2023-04-15T13:43:14;4.65;;;1.83;;
57389;SDS011;43217;52.694;6.214;2023-04-15T13:45:39;3.60;;;1.70;;
57389;SDS011;43217;52.694;6.214;2023-04-15T13:48:05;4.35;;;1.77;;
57389;SDS011;43217;52.694;6.214;2023-04-15T13:50:31;6.05;;;2.30;;
57389;SDS011;43217;52.694;6.214;2023-04-15T13:52:56;6.47;;;2.20;;
57389;SDS011;43217;52.694;6.214;2023-04-15T13:55:22;7.75;;;2.05;;
57389;SDS011;43217;52.694;6.214;2023-04-15T13:57:49;11.23;;;2.47;;
57389;SDS011;43217;52.694;6.214;2023-04-15T14:00:15;5.35;;;1.90;;
57389;SDS011;43217;52.694;6.214;2023-04-15T14:02:41;7.07;;;2.22;;
57389;SDS011;43217;52.694;6.214;2023-04-15T14:05:07;6.40;;;1.95;;
57389;SDS011;43217;52.694;6.214;2023-04-15T14:07:33;9.02;;;1.63;;
57389;SDS011;43217;52.694;6.214;2023-04-15T14:09:59;5.03;;;1.63;;
57389;SDS011;43217;52.694;6.214;2023-04-15T14:12:25;6.30;;;1.98;;
57389;SDS011;43217;52.694;6.214;2023-04-15T14:14:50;6.50;;;1.80;;
57389;SDS011;43217;52.694;6.214;2023-04-15T14:17:16;5.40;;;1.90;;
57389;SDS011;43217;52.694;6.214;2023-04-15T14:19:41;6.10;;;1.73;;
57389;SDS011;43217;52.694;6.214;2023-04-15T14:22:07;5.50;;;1.75;;
57389;SDS011;43217;52.694;6.214;2023-04-15T14:24:33;4.68;;;1.63;;
57389;SDS011;43217;52.694;6.214;2023-04-15T14:26:58;7.88;;;1.70;;
57389;SDS011;43217;52.694;6.214;2023-04-15T14:29:24;6.20;;;1.80;;
57389;SDS011;43217;52.694;6.214;2023-04-15T14:31:50;6.43;;;1.65;;
57389;SDS011;43217;52.694;6.214;2023-04-15T14:34:16;9.18;;;1.90;;
57389;SDS011;43217;52.694;6.214;2023-04-15T14:36:42;3.17;;;1.50;;
57389;SDS011;43217;52.694;6.214;2023-04-15T14:39:08;7.03;;;1.58;;
57389;SDS011;43217;52.694;6.214;2023-04-15T14:41:34;4.53;;;1.58;;
57389;SDS011;43217;52.694;6.214;2023-04-15T14:44:00;7.35;;;1.73;;
57389;SDS011;43217;52.694;6.214;2023-04-15T14:46:26;6.75;;;1.90;;
57389;SDS011;43217;52.694;6.214;2023-04-15T14:48:52;4.47;;;1.48;;
57389;SDS011;43217;52.694;6.214;2023-04-15T14:51:17;7.15;;;1.65;;
57389;SDS011;43217;52.694;6.214;2023-04-15T14:53:44;4.88;;;1.70;;
57389;SDS011;43217;52.694;6.214;2023-04-15T14:56:09;5.93;;;2.00;;
57389;SDS011;43217;52.694;6.214;2023-04-15T14:58:35;5.38;;;1.75;;
57389;SDS011;43217;52.694;6.214;2023-04-15T15:01:02;5.47;;;1.67;;
57389;SDS011;43217;52.694;6.214;2023-04-15T15:03:28;10.35;;;2.25;;
57389;SDS011;43217;52.694;6.214;2023-04-15T15:05:54;6.32;;;1.95;;
57389;SDS011;43217;52.694;6.214;2023-04-15T15:08:22;8.48;;;1.88;;
57389;SDS011;43217;52.694;6.214;2023-04-15T15:10:47;10.35;;;2.53;;